^^
Your Local Weather - Clay, NY Station Historical Data
Daily Summary for March 3, 2017 Units:  Metric    English   Both
« Previous Day
Next Day »
Daily Weekly Monthly Yearly Custom
  High: Low: Average:
Temperature: -1.4 °C -9.7 °C -6.2 °C
Dew Point: -6.3 °C -17.3 °C -12.6 °C
Humidity: 83% 45% 61%
Wind Speed: 17.7km/h 0km/h 7.2km/h
Wind Gust: 30.6km/h - -
Wind- - WNW
Pressure: 1031.7 hPa 1020.2 hPa -
Precipitation: 0 mm    
Historical Graphs
 
 
Tabular Data for March 3, 2017
Time Temperature Dew Point Pressure Wind Wind Speed Wind Gust Humidity Rainfall Rate (Hourly) solar
00:02 -5.1 °C -11.1 °C 1020.2 hPa NNW 4.8 km/h 12.9 km/h 63% 0 mm 0 W/m2
00:08 -5.2 °C -11.2 °C 1020.2 hPa NW 4.8 km/h 12.9 km/h 63% 0 mm 0 W/m2
00:13 -5.2 °C -11.4 °C 1020.2 hPa NW 6.4 km/h 12.9 km/h 62% 0 mm 0 W/m2
00:19 -5.3 °C -11.5 °C 1020.5 hPa NW 8 km/h 11.3 km/h 62% 0 mm 0 W/m2
00:26 -5.4 °C -11.6 °C 1020.5 hPa NNW 6.4 km/h 14.5 km/h 62% 0 mm 0 W/m2
00:32 -5.6 °C -11.5 °C 1020.5 hPa WNW 4.8 km/h 4.8 km/h 63% 0 mm 0 W/m2
00:38 -5.7 °C -11.7 °C 1020.5 hPa North 3.2 km/h 4.8 km/h 63% 0 mm 0 W/m2
00:43 -5.8 °C -11.7 °C 1020.5 hPa NW 4.8 km/h 6.4 km/h 63% 0 mm 0 W/m2
00:50 -5.8 °C -11.8 °C 1020.5 hPa NNW 4.8 km/h 11.3 km/h 63% 0 mm 0 W/m2
00:55 -5.9 °C -11.6 °C 1020.5 hPa NW 6.4 km/h 11.3 km/h 64% 0 mm 0 W/m2
01:02 -5.9 °C -11.7 °C 1020.5 hPa NNW 6.4 km/h 8 km/h 64% 0 mm 0 W/m2
01:08 -6.1 °C -11.6 °C 1020.5 hPa NNW 4.8 km/h 8 km/h 65% 0 mm 0 W/m2
01:13 -6.2 °C -11.7 °C 1020.5 hPa NW 3.2 km/h 6.4 km/h 65% 0 mm 0 W/m2
01:20 -6.2 °C -11.7 °C 1020.5 hPa NNW 3.2 km/h 4.8 km/h 65% 0 mm 0 W/m2
01:25 -6.3 °C -11.7 °C 1020.5 hPa NW 3.2 km/h 4.8 km/h 66% 0 mm 0 W/m2
01:32 -6.3 °C -11.7 °C 1020.9 hPa NW 3.2 km/h 6.4 km/h 66% 0 mm 0 W/m2
01:38 -6.4 °C -11.7 °C 1020.9 hPa WNW 3.2 km/h 8 km/h 66% 0 mm 0 W/m2
01:44 -6.4 °C -11.7 °C 1020.9 hPa WNW 3.2 km/h 4.8 km/h 66% 0 mm 0 W/m2
01:50 -6.4 °C -11.7 °C 1020.9 hPa NW 3.2 km/h 3.2 km/h 66% 0 mm 0 W/m2
01:55 -6.4 °C -11.7 °C 1020.9 hPa NNW 3.2 km/h 9.7 km/h 66% 0 mm 0 W/m2
02:02 -6.4 °C -11.8 °C 1020.9 hPa WNW 3.2 km/h 3.2 km/h 66% 0 mm 0 W/m2
02:08 -6.4 °C -11.7 °C 1020.9 hPa West 4.8 km/h 6.4 km/h 66% 0 mm 0 W/m2
02:14 -6.3 °C -11.7 °C 1020.9 hPa NW 4.8 km/h 6.4 km/h 66% 0 mm 0 W/m2
02:20 -6.4 °C -11.5 °C 1020.9 hPa WNW 4.8 km/h 4.8 km/h 67% 0 mm 0 W/m2
02:25 -6.3 °C -11.4 °C 1020.9 hPa WNW 3.2 km/h 4.8 km/h 67% 0 mm 0 W/m2
02:32 -6.3 °C -11.3 °C 1020.9 hPa WNW 3.2 km/h 6.4 km/h 68% 0 mm 0 W/m2
02:38 -6.2 °C -11.3 °C 1020.9 hPa NW 4.8 km/h 8 km/h 67% 0 mm 0 W/m2
02:44 -6.2 °C -11.5 °C 1020.9 hPa WNW 4.8 km/h 4.8 km/h 66% 0 mm 0 W/m2
02:49 -6.2 °C -11.7 °C 1020.9 hPa WNW 4.8 km/h 4.8 km/h 65% 0 mm 0 W/m2
02:56 -6.2 °C -11.7 °C 1020.9 hPa West 4.8 km/h 11.3 km/h 65% 0 mm 0 W/m2
03:02 -6.3 °C -11.8 °C 1020.9 hPa NW 4.8 km/h 4.8 km/h 65% 0 mm 0 W/m2
03:08 -6.3 °C -11.8 °C 1020.9 hPa WNW 3.2 km/h 8 km/h 65% 0 mm 0 W/m2
03:13 -6.3 °C -12.1 °C 1020.9 hPa NW 3.2 km/h 6.4 km/h 64% 0 mm 0 W/m2
03:19 -6.4 °C -12.1 °C 1020.9 hPa WNW 3.2 km/h 4.8 km/h 64% 0 mm 0 W/m2
03:26 -6.5 °C -12.2 °C 1020.9 hPa WNW 4.8 km/h 8 km/h 64% 0 mm 0 W/m2
03:32 -6.6 °C -12.2 °C 1020.9 hPa WNW 4.8 km/h 4.8 km/h 64% 0 mm 0 W/m2
03:38 -6.6 °C -12.3 °C 1021.2 hPa WNW 3.2 km/h 4.8 km/h 64% 0 mm 0 W/m2
03:44 -6.6 °C -12.1 °C 1021.2 hPa WNW 3.2 km/h 6.4 km/h 65% 0 mm 0 W/m2
03:50 -6.7 °C -12.2 °C 1021.2 hPa WNW 3.2 km/h 3.2 km/h 65% 0 mm 0 W/m2
03:55 -6.7 °C -12.2 °C 1021.2 hPa NNW 3.2 km/h 4.8 km/h 65% 0 mm 0 W/m2
04:02 -6.7 °C -11.9 °C 1021.2 hPa NNW 3.2 km/h 3.2 km/h 66% 0 mm 0 W/m2
04:08 -6.7 °C -12 °C 1021.2 hPa WNW 3.2 km/h 6.4 km/h 66% 0 mm 0 W/m2
04:14 -6.7 °C -11.8 °C 1021.6 hPa WNW 1.6 km/h 3.2 km/h 67% 0 mm 0 W/m2
04:20 -6.7 °C -11.8 °C 1021.6 hPa WNW 1.6 km/h 1.6 km/h 67% 0 mm 0 W/m2
04:25 -6.7 °C -11.7 °C 1021.6 hPa Calm   3.2 km/h 68% 0 mm 0 W/m2
04:32 -6.7 °C -11.7 °C 1021.6 hPa NW 1.6 km/h 3.2 km/h 68% 0 mm 0 W/m2
04:40 -6.8 °C -11.9 °C 1021.6 hPa NW 1.6 km/h 6.4 km/h 67% 0 mm 0 W/m2
04:45 -6.9 °C -12.2 °C 1021.6 hPa NNW 3.2 km/h 6.4 km/h 66% 0 mm 0 W/m2
04:52 -7 °C -12.1 °C 1021.6 hPa NW 3.2 km/h 4.8 km/h 67% 0 mm 0 W/m2
04:58 -7.1 °C -12.2 °C 1021.9 hPa NW 3.2 km/h 4.8 km/h 67% 0 mm 0 W/m2
05:03 -7.2 °C -12.3 °C 1021.9 hPa NW 1.6 km/h 1.6 km/h 67% 0 mm 0 W/m2
05:09 -7.3 °C -12.4 °C 1021.9 hPa Calm   1.6 km/h 67% 0 mm 0 W/m2
05:16 -7.5 °C -12.6 °C 1021.9 hPa NW 1.6 km/h 1.6 km/h 67% 0 mm 0 W/m2
05:22 -7.6 °C -12.4 °C 1021.9 hPa Calm   1.6 km/h 68% 0 mm 0 W/m2
05:28 -7.7 °C -12.6 °C 1022.2 hPa Calm   1.6 km/h 68% 0 mm 0 W/m2
05:33 -7.7 °C -12.4 °C 1022.2 hPa Calm     69% 0 mm 0 W/m2
05:40 -7.8 °C -12.3 °C 1022.2 hPa Calm     70% 0 mm 0 W/m2
05:45 -7.9 °C -12.4 °C 1022.2 hPa NW 1.6 km/h 3.2 km/h 70% 0 mm 0 W/m2
05:52 -8.1 °C -12.4 °C 1022.2 hPa NW 1.6 km/h 1.6 km/h 71% 0 mm 0 W/m2
05:58 -8.2 °C -12.5 °C 1022.2 hPa Calm   1.6 km/h 71% 0 mm 0 W/m2
06:03 -8.3 °C -12.4 °C 1022.2 hPa Calm     72% 0 mm 0 W/m2
06:10 -8.3 °C -12.5 °C 1022.2 hPa Calm     72% 0 mm 0 W/m2
06:15 -8.4 °C -12.6 °C 1022.2 hPa Calm     72% 0 mm 0 W/m2
06:22 -8.7 °C -12.7 °C 1022.2 hPa Calm     73% 0 mm 0 W/m2
06:28 -8.9 °C -12.7 °C 1022.2 hPa Calm     74% 0 mm 0 W/m2
06:33 -9.1 °C -12.8 °C 1022.2 hPa Calm     74% 0 mm 0 W/m2
06:39 -9.1 °C -12.7 °C 1022.2 hPa Calm     75% 0 mm 5 W/m2
06:46 -9.2 °C -12.8 °C 1022.2 hPa Calm     75% 0 mm 9 W/m2
06:52 -9.4 °C -13 °C 1022.2 hPa Calm     75% 0 mm 11 W/m2
06:58 -9.5 °C -12.9 °C 1022.6 hPa Calm     76% 0 mm 14 W/m2
07:03 -9.6 °C -12.8 °C 1022.6 hPa Calm     77% 0 mm 16 W/m2
07:09 -9.6 °C -12.9 °C 1022.6 hPa Calm     77% 0 mm 19 W/m2
07:16 -9.7 °C -12.9 °C 1022.6 hPa Calm     77% 0 mm 25 W/m2
07:22 -9.4 °C -12.4 °C 1022.9 hPa Calm     79% 0 mm 26 W/m2
07:28 -9.3 °C -12.1 °C 1023.2 hPa Calm     80% 0 mm 26 W/m2
07:33 -9 °C -11.8 °C 1023.2 hPa Calm     80% 0 mm 60 W/m2
07:40 -8.4 °C -11.4 °C 1023.2 hPa Calm     79% 0 mm 74 W/m2
07:46 -7.8 °C -11.2 °C 1023.2 hPa Calm     77% 0 mm 102 W/m2
07:52 -7.3 °C -11.3 °C 1023.2 hPa Calm     73% 0 mm 171 W/m2
07:58 -7 °C -11.7 °C 1023.2 hPa West 1.6 km/h 4.8 km/h 69% 0 mm 151 W/m2
08:03 -6.8 °C -11.7 °C 1023.2 hPa West 1.6 km/h 3.2 km/h 68% 0 mm 206 W/m2
08:09 -6.6 °C -11.5 °C 1023.2 hPa West 1.6 km/h 1.6 km/h 68% 0 mm 188 W/m2
08:16 -6.5 °C -11.8 °C 1023.2 hPa West 1.6 km/h 4.8 km/h 66% 0 mm 156 W/m2
08:22 -6.3 °C -11.8 °C 1023.2 hPa West 1.6 km/h 3.2 km/h 65% 0 mm 158 W/m2
08:28 -6.1 °C -11.6 °C 1023.2 hPa West 1.6 km/h 4.8 km/h 65% 0 mm 193 W/m2
08:33 -5.9 °C -11.6 °C 1023.2 hPa WSW 1.6 km/h 4.8 km/h 64% 0 mm 181 W/m2
08:39 -5.7 °C -11.3 °C 1023.2 hPa WSW 1.6 km/h 1.6 km/h 65% 0 mm 237 W/m2
08:46 -5.1 °C -11.2 °C 1023.2 hPa WSW 1.6 km/h 4.8 km/h 62% 0 mm 322 W/m2
08:52 -5.2 °C -11.3 °C 1023.2 hPa Calm   1.6 km/h 62% 0 mm 352 W/m2
08:58 -4.8 °C -10.4 °C 1023.2 hPa SW 1.6 km/h 3.2 km/h 65% 0 mm 388 W/m2
09:04 -5.1 °C -11.3 °C 1023.2 hPa SSW 3.2 km/h 4.8 km/h 62% 0 mm 454 W/m2
09:09 -5.1 °C -11.3 °C 1023.2 hPa WSW 4.8 km/h 4.8 km/h 62% 0 mm 524 W/m2
09:16 -4.6 °C -10.9 °C 1023.2 hPa WSW 3.2 km/h 8 km/h 61% 0 mm 269 W/m2
09:22 -5.1 °C -11.4 °C 1023.2 hPa WSW 3.2 km/h 11.3 km/h 61% 0 mm 396 W/m2
09:28 -4.7 °C -10.8 °C 1023.2 hPa WSW 4.8 km/h 11.3 km/h 62% 0 mm 281 W/m2
09:33 -4.3 °C -10.5 °C 1023.2 hPa WNW 4.8 km/h 8 km/h 62% 0 mm 587 W/m2
09:40 -4.2 °C -11 °C 1023.2 hPa WNW 4.8 km/h 4.8 km/h 59% 0 mm 163 W/m2
09:45 -4.7 °C -11.1 °C 1022.9 hPa West 4.8 km/h 9.7 km/h 61% 0 mm 621 W/m2
09:52 -4 °C -10.4 °C 1022.9 hPa SSW 4.8 km/h 11.3 km/h 61% 0 mm 543 W/m2
09:58 -3.7 °C -10.7 °C 1022.9 hPa West 6.4 km/h 14.5 km/h 58% 0 mm 541 W/m2
10:04 -3.9 °C -10.9 °C 1022.9 hPa WSW 6.4 km/h 20.9 km/h 58% 0 mm 462 W/m2
10:09 -3.7 °C -10.7 °C 1022.9 hPa SW 4.8 km/h 11.3 km/h 58% 0 mm 294 W/m2
10:15 -3.3 °C -9.7 °C 1022.9 hPa SW 6.4 km/h 11.3 km/h 61% 0 mm 796 W/m2
10:22 -3.3 °C -10.2 °C 1022.9 hPa SW 6.4 km/h 8 km/h 59% 0 mm 274 W/m2
10:28 -3.6 °C -10.8 °C 1022.9 hPa SW 6.4 km/h 11.3 km/h 57% 0 mm 294 W/m2
10:33 -3.3 °C -9.4 °C 1022.6 hPa WSW 6.4 km/h 6.4 km/h 63% 0 mm 791 W/m2
10:39 -3 °C -10.1 °C 1022.9 hPa South 6.4 km/h 11.3 km/h 58% 0 mm 589 W/m2
10:46 -2.8 °C -9.3 °C 1022.9 hPa SSW 8 km/h 12.9 km/h 61% 0 mm 807 W/m2
10:52 -2.9 °C -10.3 °C 1022.6 hPa SW 8 km/h 16.1 km/h 57% 0 mm 763 W/m2
10:58 -2.8 °C -9.7 °C 1022.6 hPa West 6.4 km/h 16.1 km/h 59% 0 mm 165 W/m2
11:03 -2.7 °C -8.9 °C 1022.6 hPa SSW 6.4 km/h 11.3 km/h 62% 0 mm 663 W/m2
11:09 -2.8 °C -9.7 °C 1022.2 hPa SSE 8 km/h 12.9 km/h 59% 0 mm 722 W/m2
11:16 -2.9 °C -9.8 °C 1022.2 hPa WNW 8 km/h 12.9 km/h 59% 0 mm 306 W/m2
11:22 -2.9 °C -9.8 °C 1022.2 hPa WSW 6.4 km/h 12.9 km/h 59% 0 mm 325 W/m2
11:28 -2.2 °C -8.6 °C 1022.2 hPa West 4.8 km/h 12.9 km/h 62% 0 mm 302 W/m2
11:33 -2.4 °C -9.2 °C 1022.2 hPa SW 4.8 km/h 8 km/h 60% 0 mm 341 W/m2
11:40 -2.5 °C -9.2 °C 1021.9 hPa SSE 4.8 km/h 9.7 km/h 60% 0 mm 350 W/m2
11:45 -2.2 °C -8.3 °C 1021.6 hPa SW 6.4 km/h 9.7 km/h 63% 0 mm 835 W/m2
11:52 -1.4 °C -8.4 °C 1021.6 hPa South 6.4 km/h 6.4 km/h 59% 0 mm 816 W/m2
11:58 -1.6 °C -9 °C 1021.6 hPa SSW 6.4 km/h 11.3 km/h 57% 0 mm 253 W/m2
12:04 -1.8 °C -9.7 °C 1021.6 hPa West 8 km/h 8 km/h 55% 0 mm 167 W/m2
12:10 -2.3 °C -9.9 °C 1021.9 hPa West 8 km/h 8 km/h 56% 0 mm 44 W/m2
12:15 -2.9 °C -7.4 °C 1022.2 hPa WNW 8 km/h 12.9 km/h 71% 0 mm 39 W/m2
12:22 -4.1 °C -7.2 °C 1022.2 hPa SW 8 km/h 11.3 km/h 79% 0 mm 204 W/m2
12:28 -4.2 °C -6.6 °C 1022.2 hPa West 4.8 km/h 11.3 km/h 83% 0 mm 355 W/m2
12:33 -3.7 °C -6.3 °C 1022.2 hPa NW 4.8 km/h 9.7 km/h 82% 0 mm 628 W/m2
12:39 -3 °C -7.3 °C 1022.2 hPa WNW 9.7 km/h 25.7 km/h 72% 0 mm 608 W/m2
12:46 -2.1 °C -6.5 °C 1022.2 hPa WNW 9.7 km/h 25.7 km/h 72% 0 mm 949 W/m2
12:52 -1.8 °C -6.9 °C 1022.2 hPa WNW 9.7 km/h 16.1 km/h 68% 0 mm 844 W/m2
12:58 -2.3 °C -8 °C 1022.2 hPa WNW 11.3 km/h 16.1 km/h 65% 0 mm 199 W/m2
13:03 -2.7 °C -8.6 °C 1022.2 hPa WNW 11.3 km/h 12.9 km/h 64% 0 mm 193 W/m2
13:09 -2.7 °C -8.2 °C 1022.2 hPa WNW 11.3 km/h 14.5 km/h 66% 0 mm 186 W/m2
13:16 -3.2 °C -7.5 °C 1022.6 hPa NNW 11.3 km/h 20.9 km/h 72% 0 mm 265 W/m2
13:22 -3.4 °C -7.6 °C 1022.6 hPa WNW 11.3 km/h 19.3 km/h 73% 0 mm 118 W/m2
13:28 -3.6 °C -7.6 °C 1022.6 hPa NW 11.3 km/h 19.3 km/h 74% 0 mm 336 W/m2
13:34 -3.2 °C -8.5 °C 1022.6 hPa NW 11.3 km/h 16.1 km/h 67% 0 mm 176 W/m2
13:40 -3.3 °C -9.8 °C 1022.6 hPa NW 12.9 km/h 17.7 km/h 61% 0 mm 192 W/m2
13:45 -3.3 °C -10.7 °C 1022.9 hPa NW 14.5 km/h 20.9 km/h 57% 0 mm 438 W/m2
13:52 -3.1 °C -11.1 °C 1022.9 hPa NNW 12.9 km/h 14.5 km/h 54% 0 mm 733 W/m2
13:58 -2.9 °C -12.4 °C 1023.2 hPa WNW 12.9 km/h 14.5 km/h 48% 0 mm 751 W/m2
14:04 -2.4 °C -11.4 °C 1023.2 hPa NW 12.9 km/h 12.9 km/h 50% 0 mm 645 W/m2
14:10 -3.3 °C -11.7 °C 1023.2 hPa NW 14.5 km/h 14.5 km/h 52% 0 mm 237 W/m2
14:15 -3.3 °C -13.3 °C 1023.6 hPa NW 16.1 km/h 24.1 km/h 46% 0 mm 580 W/m2
14:22 -4 °C -13.7 °C 1023.9 hPa WNW 17.7 km/h 17.7 km/h 47% 0 mm 118 W/m2
14:28 -3.6 °C -12.1 °C 1023.9 hPa WNW 14.5 km/h 17.7 km/h 52% 0 mm 633 W/m2
14:34 -3.4 °C -12.9 °C 1023.9 hPa West 12.9 km/h 17.7 km/h 48% 0 mm 635 W/m2
14:45 -4.3 °C -12.7 °C 1024.3 hPa WNW 14.5 km/h 20.9 km/h 52% 0 mm 162 W/m2
14:52 -4.6 °C -12.3 °C 1024.3 hPa NW 14.5 km/h 14.5 km/h 55% 0 mm 125 W/m2
14:58 -4.7 °C -12.4 °C 1024.3 hPa NW 14.5 km/h 14.5 km/h 55% 0 mm 223 W/m2
15:04 -4.7 °C -11.7 °C 1024.6 hPa WNW 14.5 km/h 20.9 km/h 58% 0 mm 130 W/m2
15:09 -5.1 °C -11.4 °C 1024.6 hPa WNW 16.1 km/h 19.3 km/h 61% 0 mm 93 W/m2
15:15 -5.3 °C -11.1 °C 1024.9 hPa WNW 12.9 km/h 20.9 km/h 64% 0 mm 116 W/m2
15:22 -5.6 °C -11.7 °C 1024.9 hPa NW 16.1 km/h 20.9 km/h 62% 0 mm 137 W/m2
15:28 -5.4 °C -11.2 °C 1025.3 hPa WNW 12.9 km/h 20.9 km/h 64% 0 mm 116 W/m2
15:33 -5.3 °C -12.1 °C 1025.3 hPa WNW 11.3 km/h 24.1 km/h 59% 0 mm 148 W/m2
15:39 -5 °C -13.3 °C 1025.3 hPa WSW 14.5 km/h 14.5 km/h 52% 0 mm 98 W/m2
15:46 -5.1 °C -13.7 °C 1025.6 hPa WNW 12.9 km/h 16.1 km/h 51% 0 mm 257 W/m2
15:52 -5.2 °C -13.3 °C 1026 hPa NW 12.9 km/h 24.1 km/h 53% 0 mm 132 W/m2
15:58 -4.8 °C -14.4 °C 1026 hPa WNW 11.3 km/h 24.1 km/h 47% 0 mm 468 W/m2
16:03 -4.7 °C -14.3 °C 1026 hPa WNW 12.9 km/h 25.7 km/h 47% 0 mm 297 W/m2
16:09 -4.8 °C -14.4 °C 1026.3 hPa WNW 14.5 km/h 14.5 km/h 47% 0 mm 388 W/m2
16:15 -4.8 °C -13.9 °C 1026.3 hPa WNW 12.9 km/h 17.7 km/h 49% 0 mm 255 W/m2
16:18 -5 °C -14.3 °C 1026.3 hPa WNW 12.9 km/h 17.7 km/h 48% 0 mm 76 W/m2
16:24 -5.7 °C -13.6 °C 1026.3 hPa WNW 14.5 km/h 24.1 km/h 54% 0 mm 125 W/m2
16:30 -5.9 °C -14.2 °C 1026.6 hPa NW 12.9 km/h 14.5 km/h 52% 0 mm 70 W/m2
16:35 -5.9 °C -14.2 °C 1027 hPa NW 9.7 km/h 14.5 km/h 52% 0 mm 86 W/m2
16:42 -6 °C -15.8 °C 1026.6 hPa West 11.3 km/h 17.7 km/h 46% 0 mm 77 W/m2
16:48 -6 °C -15.8 °C 1027 hPa WNW 14.5 km/h 17.7 km/h 46% 0 mm 74 W/m2
16:54 -6.1 °C -15.9 °C 1027 hPa WNW 12.9 km/h 16.1 km/h 46% 0 mm 60 W/m2
17:00 -6.4 °C -16.4 °C 1027.3 hPa West 14.5 km/h 30.6 km/h 45% 0 mm 40 W/m2
17:06 -6.6 °C -16.3 °C 1027.7 hPa West 16.1 km/h 30.6 km/h 46% 0 mm 62 W/m2
17:12 -6.7 °C -16.1 °C 1027.7 hPa NW 16.1 km/h 17.7 km/h 47% 0 mm 28 W/m2
17:18 -6.8 °C -16.2 °C 1027.7 hPa WNW 14.5 km/h 20.9 km/h 47% 0 mm 28 W/m2
17:23 -6.8 °C -16.6 °C 1028 hPa WNW 14.5 km/h 20.9 km/h 46% 0 mm 21 W/m2
17:29 -7 °C -16.4 °C 1028 hPa WNW 14.5 km/h 14.5 km/h 47% 0 mm 18 W/m2
17:36 -7.1 °C -16.7 °C 1028.7 hPa WNW 14.5 km/h 17.7 km/h 46% 0 mm 14 W/m2
17:42 -7.1 °C -16.6 °C 1028.3 hPa WNW 16.1 km/h 16.1 km/h 47% 0 mm 11 W/m2
17:48 -7.2 °C -16.1 °C 1028.7 hPa NW 14.5 km/h 16.1 km/h 49% 0 mm 7 W/m2
17:54 -7.1 °C -16.1 °C 1028.7 hPa WNW 12.9 km/h 17.7 km/h 49% 0 mm 0 W/m2
17:59 -7.1 °C -16 °C 1028.7 hPa WNW 12.9 km/h 12.9 km/h 49% 0 mm 0 W/m2
18:05 -7.1 °C -16.2 °C 1028.7 hPa West 12.9 km/h 16.1 km/h 48% 0 mm 0 W/m2
18:12 -7.1 °C -16.3 °C 1028.7 hPa WNW 12.9 km/h 12.9 km/h 48% 0 mm 0 W/m2
18:18 -7.2 °C -16.6 °C 1028.7 hPa WNW 9.7 km/h 12.9 km/h 47% 0 mm 0 W/m2
18:23 -7.2 °C -16.6 °C 1029 hPa NNW 11.3 km/h 16.1 km/h 47% 0 mm 0 W/m2
18:30 -7.2 °C -16.8 °C 1029 hPa WNW 11.3 km/h 11.3 km/h 46% 0 mm 0 W/m2
18:35 -7.2 °C -16.6 °C 1029 hPa WNW 11.3 km/h 11.3 km/h 47% 0 mm 0 W/m2
18:42 -7.2 °C -16.6 °C 1029.3 hPa WNW 11.3 km/h 14.5 km/h 47% 0 mm 0 W/m2
18:49 -7.2 °C -15.9 °C 1029.3 hPa NW 9.7 km/h 9.7 km/h 50% 0 mm 0 W/m2
18:55 -7.2 °C -15.4 °C 1029.3 hPa WNW 8 km/h 9.7 km/h 52% 0 mm 0 W/m2
19:02 -7.4 °C -14.9 °C 1029.7 hPa NW 9.7 km/h 9.7 km/h 55% 0 mm 0 W/m2
19:08 -7.4 °C -14.9 °C 1029.7 hPa WNW 8 km/h 12.9 km/h 55% 0 mm 0 W/m2
19:14 -7.4 °C -14.9 °C 1029.7 hPa NW 11.3 km/h 24.1 km/h 55% 0 mm 0 W/m2
19:20 -7.6 °C -14.8 °C 1029.7 hPa NW 11.3 km/h 11.3 km/h 56% 0 mm 0 W/m2
19:25 -7.6 °C -15.1 °C 1029.7 hPa NNW 11.3 km/h 12.9 km/h 55% 0 mm 0 W/m2
19:32 -7.6 °C -15.1 °C 1029.7 hPa NNW 8 km/h 9.7 km/h 55% 0 mm 0 W/m2
19:38 -7.7 °C -15.7 °C 1029.7 hPa NW 9.7 km/h 20.9 km/h 53% 0 mm 0 W/m2
19:44 -7.7 °C -15.6 °C 1029.7 hPa WNW 11.3 km/h 14.5 km/h 53% 0 mm 0 W/m2
19:50 -7.7 °C -15.8 °C 1030 hPa WNW 9.7 km/h 11.3 km/h 52% 0 mm 0 W/m2
19:55 -7.7 °C -15.4 °C 1030 hPa NNW 9.7 km/h 17.7 km/h 54% 0 mm 0 W/m2
20:02 -7.9 °C -13 °C 1030 hPa NNW 9.7 km/h 19.3 km/h 67% 0 mm 0 W/m2
20:08 -8.2 °C -12.6 °C 1030 hPa NNW 9.7 km/h 19.3 km/h 71% 0 mm 0 W/m2
20:13 -8.2 °C -12.7 °C 1030 hPa NW 8 km/h 24.1 km/h 70% 0 mm 0 W/m2
20:19 -8.3 °C -12.5 °C 1030.4 hPa WNW 9.7 km/h 9.7 km/h 72% 0 mm 0 W/m2
20:26 -8.4 °C -12.4 °C 1030.4 hPa NW 9.7 km/h 9.7 km/h 73% 0 mm 0 W/m2
20:32 -8.4 °C -12.9 °C 1030.4 hPa WNW 8 km/h 9.7 km/h 70% 0 mm 0 W/m2
20:38 -8.2 °C -13.6 °C 1030.7 hPa West 9.7 km/h 9.7 km/h 65% 0 mm 0 W/m2
20:43 -8.1 °C -14.3 °C 1030.7 hPa NW 9.7 km/h 14.5 km/h 61% 0 mm 0 W/m2
20:49 -8.2 °C -14.4 °C 1030.7 hPa NNW 11.3 km/h 11.3 km/h 61% 0 mm 0 W/m2
20:56 -8.3 °C -14.1 °C 1030.7 hPa NW 11.3 km/h 14.5 km/h 63% 0 mm 0 W/m2
21:02 -8.2 °C -14.4 °C 1030.7 hPa NW 11.3 km/h 14.5 km/h 61% 0 mm 0 W/m2
21:08 -8.1 °C -14.5 °C 1030.7 hPa WNW 9.7 km/h 14.5 km/h 60% 0 mm 0 W/m2
21:14 -8.1 °C -14.9 °C 1031 hPa NW 9.7 km/h 16.1 km/h 58% 0 mm 0 W/m2
21:19 -8.1 °C -14.9 °C 1031 hPa NNW 11.3 km/h 11.3 km/h 58% 0 mm 0 W/m2
21:26 -8.2 °C -15.4 °C 1031 hPa WNW 11.3 km/h 11.3 km/h 56% 0 mm 0 W/m2
21:32 -8.2 °C -15.6 °C 1031 hPa NW 12.9 km/h 14.5 km/h 55% 0 mm 0 W/m2
21:38 -8.2 °C -15.4 °C 1031.4 hPa WNW 11.3 km/h 14.5 km/h 56% 0 mm 0 W/m2
21:46 -8.2 °C -15.2 °C 1031.4 hPa NNW 8 km/h 8 km/h 57% 0 mm 0 W/m2
21:52 -8.2 °C -15.4 °C 1031.4 hPa NW 8 km/h 16.1 km/h 56% 0 mm 0 W/m2
21:58 -8.3 °C -15.8 °C 1031.4 hPa NW 11.3 km/h 12.9 km/h 55% 0 mm 0 W/m2
22:03 -8.3 °C -15.6 °C 1031.4 hPa NNW 12.9 km/h 12.9 km/h 56% 0 mm 0 W/m2
22:09 -8.4 °C -15.8 °C 1031.7 hPa NW 11.3 km/h 11.3 km/h 55% 0 mm 0 W/m2
22:16 -8.4 °C -16.3 °C 1031.7 hPa WNW 9.7 km/h 11.3 km/h 53% 0 mm 0 W/m2
22:22 -8.5 °C -16.2 °C 1031.4 hPa NW 9.7 km/h 12.9 km/h 54% 0 mm 0 W/m2
22:28 -8.6 °C -16.2 °C 1031.4 hPa NW 9.7 km/h 24.1 km/h 54% 0 mm 0 W/m2
22:33 -8.6 °C -16.3 °C 1031.4 hPa WNW 9.7 km/h 12.9 km/h 54% 0 mm 0 W/m2
22:40 -8.6 °C -16.5 °C 1031.7 hPa NW 9.7 km/h 9.7 km/h 53% 0 mm 0 W/m2
22:45 -8.6 °C -16.1 °C 1031.7 hPa NW 9.7 km/h 14.5 km/h 55% 0 mm 0 W/m2
22:52 -8.6 °C -15.6 °C 1031.7 hPa NW 9.7 km/h 9.7 km/h 57% 0 mm 0 W/m2
22:58 -8.7 °C -16.1 °C 1031.7 hPa NW 6.4 km/h 19.3 km/h 55% 0 mm 0 W/m2
23:03 -8.7 °C -16.1 °C 1031.7 hPa NNW 8 km/h 14.5 km/h 55% 0 mm 0 W/m2
23:09 -8.8 °C -15.6 °C 1031.7 hPa WNW 9.7 km/h 9.7 km/h 58% 0 mm 0 W/m2
23:16 -8.7 °C -15.7 °C 1031.7 hPa NW 9.7 km/h 9.7 km/h 57% 0 mm 0 W/m2
23:22 -8.8 °C -16 °C 1031.7 hPa NNW 6.4 km/h 9.7 km/h 56% 0 mm 0 W/m2
23:28 -8.8 °C -16.3 °C 1031.7 hPa NW 8 km/h 14.5 km/h 55% 0 mm 0 W/m2
23:33 -8.8 °C -16.4 °C 1031.7 hPa NW 8 km/h 19.3 km/h 54% 0 mm 0 W/m2
23:40 -8.9 °C -16.5 °C 1031.7 hPa NW 6.4 km/h 6.4 km/h 54% 0 mm 0 W/m2
23:45 -8.9 °C -16.6 °C 1031.7 hPa NW 6.4 km/h 6.4 km/h 54% 0 mm 0 W/m2
23:52 -8.9 °C -17 °C 1031.7 hPa NNW 8 km/h 8 km/h 52% 0 mm 0 W/m2
23:58 -8.9 °C -17.3 °C 1031.7 hPa WNW 8 km/h 9.7 km/h 51% 0 mm 0 W/m2
Country Meadow, Clay, NY, USA
Compliments of Weather Underground - 2 mb